sensor_id;sensor_type;location;lat;lon;timestamp;P1;durP1;ratioP1;P2;durP2;ratioP2
47669;SDS011;33408;52.062;11.722;2023-09-19T00:02:20;3.58;;;1.60;;
47669;SDS011;33408;52.062;11.722;2023-09-19T00:04:47;5.72;;;1.80;;
47669;SDS011;33408;52.062;11.722;2023-09-19T00:07:15;2.90;;;1.40;;
47669;SDS011;33408;52.062;11.722;2023-09-19T00:09:42;5.13;;;2.08;;
47669;SDS011;33408;52.062;11.722;2023-09-19T00:12:09;4.95;;;1.90;;
47669;SDS011;33408;52.062;11.722;2023-09-19T00:14:38;4.25;;;1.77;;
47669;SDS011;33408;52.062;11.722;2023-09-19T00:17:05;7.03;;;1.85;;
47669;SDS011;33408;52.062;11.722;2023-09-19T00:19:34;6.72;;;2.00;;
47669;SDS011;33408;52.062;11.722;2023-09-19T00:22:01;4.15;;;1.80;;
47669;SDS011;33408;52.062;11.722;2023-09-19T00:24:27;7.05;;;1.58;;
47669;SDS011;33408;52.062;11.722;2023-09-19T00:26:54;4.47;;;1.58;;
47669;SDS011;33408;52.062;11.722;2023-09-19T00:29:21;3.95;;;1.48;;
47669;SDS011;33408;52.062;11.722;2023-09-19T00:31:48;3.90;;;1.30;;
47669;SDS011;33408;52.062;11.722;2023-09-19T00:34:15;4.78;;;1.30;;
47669;SDS011;33408;52.062;11.722;2023-09-19T00:36:43;2.65;;;1.23;;
47669;SDS011;33408;52.062;11.722;2023-09-19T00:39:10;2.22;;;1.00;;
47669;SDS011;33408;52.062;11.722;2023-09-19T00:41:37;5.75;;;1.30;;
47669;SDS011;33408;52.062;11.722;2023-09-19T00:44:03;3.85;;;1.10;;
47669;SDS011;33408;52.062;11.722;2023-09-19T00:46:31;5.25;;;1.35;;
47669;SDS011;33408;52.062;11.722;2023-09-19T00:48:58;6.40;;;1.17;;
47669;SDS011;33408;52.062;11.722;2023-09-19T00:51:25;2.92;;;0.90;;
47669;SDS011;33408;52.062;11.722;2023-09-19T00:53:54;7.28;;;1.23;;
47669;SDS011;33408;52.062;11.722;2023-09-19T00:56:21;2.95;;;0.77;;
47669;SDS011;33408;52.062;11.722;2023-09-19T00:58:48;1.80;;;0.60;;
47669;SDS011;33408;52.062;11.722;2023-09-19T01:01:15;1.52;;;0.80;;
47669;SDS011;33408;52.062;11.722;2023-09-19T01:03:42;3.40;;;1.00;;
47669;SDS011;33408;52.062;11.722;2023-09-19T01:06:10;3.97;;;0.88;;
47669;SDS011;33408;52.062;11.722;2023-09-19T01:08:37;4.40;;;0.90;;
47669;SDS011;33408;52.062;11.722;2023-09-19T01:11:09;2.58;;;0.70;;
47669;SDS011;33408;52.062;11.722;2023-09-19T01:13:45;3.53;;;0.90;;
47669;SDS011;33408;52.062;11.722;2023-09-19T01:16:19;8.48;;;1.20;;
47669;SDS011;33408;52.062;11.722;2023-09-19T01:18:57;2.17;;;0.90;;
47669;SDS011;33408;52.062;11.722;2023-09-19T01:21:35;2.85;;;1.00;;
47669;SDS011;33408;52.062;11.722;2023-09-19T01:24:17;5.22;;;0.90;;
47669;SDS011;33408;52.062;11.722;2023-09-19T01:27:12;2.45;;;0.80;;
47669;SDS011;33408;52.062;11.722;2023-09-19T01:29:51;2.88;;;0.65;;
47669;SDS011;33408;52.062;11.722;2023-09-19T01:32:20;2.25;;;0.85;;
47669;SDS011;33408;52.062;11.722;2023-09-19T01:34:50;5.70;;;1.00;;
47669;SDS011;33408;52.062;11.722;2023-09-19T01:37:21;2.83;;;1.00;;
47669;SDS011;33408;52.062;11.722;2023-09-19T01:39:51;1.58;;;0.80;;
47669;SDS011;33408;52.062;11.722;2023-09-19T01:42:24;2.05;;;0.70;;
47669;SDS011;33408;52.062;11.722;2023-09-19T01:44:57;1.42;;;0.65;;
47669;SDS011;33408;52.062;11.722;2023-09-19T01:47:32;4.78;;;0.98;;
47669;SDS011;33408;52.062;11.722;2023-09-19T01:50:02;2.50;;;1.10;;
47669;SDS011;33408;52.062;11.722;2023-09-19T01:52:39;3.38;;;0.75;;
47669;SDS011;33408;52.062;11.722;2023-09-19T01:55:13;2.22;;;1.00;;
47669;SDS011;33408;52.062;11.722;2023-09-19T01:57:45;2.90;;;1.05;;
47669;SDS011;33408;52.062;11.722;2023-09-19T02:00:18;2.30;;;0.95;;
47669;SDS011;33408;52.062;11.722;2023-09-19T02:02:50;1.20;;;0.60;;
47669;SDS011;33408;52.062;11.722;2023-09-19T02:05:24;2.72;;;1.10;;
47669;SDS011;33408;52.062;11.722;2023-09-19T02:07:52;2.75;;;1.02;;
47669;SDS011;33408;52.062;11.722;2023-09-19T02:10:20;2.10;;;0.88;;
47669;SDS011;33408;52.062;11.722;2023-09-19T02:12:47;4.05;;;1.23;;
47669;SDS011;33408;52.062;11.722;2023-09-19T02:15:14;3.95;;;1.38;;
47669;SDS011;33408;52.062;11.722;2023-09-19T02:17:42;2.88;;;0.90;;
47669;SDS011;33408;52.062;11.722;2023-09-19T02:20:11;3.60;;;1.00;;
47669;SDS011;33408;52.062;11.722;2023-09-19T02:22:39;5.38;;;1.20;;
47669;SDS011;33408;52.062;11.722;2023-09-19T02:25:07;1.35;;;0.82;;
47669;SDS011;33408;52.062;11.722;2023-09-19T02:27:34;3.72;;;1.10;;
47669;SDS011;33408;52.062;11.722;2023-09-19T02:30:01;2.83;;;1.10;;
47669;SDS011;33408;52.062;11.722;2023-09-19T02:32:29;7.07;;;1.35;;
47669;SDS011;33408;52.062;11.722;2023-09-19T02:34:56;2.70;;;1.10;;
47669;SDS011;33408;52.062;11.722;2023-09-19T02:37:25;2.58;;;1.20;;
47669;SDS011;33408;52.062;11.722;2023-09-19T02:39:51;2.53;;;1.10;;
47669;SDS011;33408;52.062;11.722;2023-09-19T02:42:18;2.55;;;1.38;;
47669;SDS011;33408;52.062;11.722;2023-09-19T02:44:45;2.75;;;1.45;;
47669;SDS011;33408;52.062;11.722;2023-09-19T02:47:12;3.83;;;1.20;;
47669;SDS011;33408;52.062;11.722;2023-09-19T02:49:40;4.18;;;1.45;;
47669;SDS011;33408;52.062;11.722;2023-09-19T02:52:07;4.28;;;1.30;;
47669;SDS011;33408;52.062;11.722;2023-09-19T02:54:36;3.03;;;1.23;;
47669;SDS011;33408;52.062;11.722;2023-09-19T02:57:04;2.22;;;1.08;;
47669;SDS011;33408;52.062;11.722;2023-09-19T02:59:32;4.82;;;1.40;;
47669;SDS011;33408;52.062;11.722;2023-09-19T03:02:01;3.03;;;1.00;;
47669;SDS011;33408;52.062;11.722;2023-09-19T03:04:29;4.97;;;1.42;;
47669;SDS011;33408;52.062;11.722;2023-09-19T03:06:56;3.75;;;1.40;;
47669;SDS011;33408;52.062;11.722;2023-09-19T03:09:25;3.47;;;1.60;;
47669;SDS011;33408;52.062;11.722;2023-09-19T03:11:53;4.32;;;1.38;;
47669;SDS011;33408;52.062;11.722;2023-09-19T03:14:20;4.53;;;1.42;;
47669;SDS011;33408;52.062;11.722;2023-09-19T03:16:48;3.83;;;1.30;;
47669;SDS011;33408;52.062;11.722;2023-09-19T03:19:15;3.67;;;1.55;;
47669;SDS011;33408;52.062;11.722;2023-09-19T03:21:42;4.50;;;1.58;;
47669;SDS011;33408;52.062;11.722;2023-09-19T03:24:08;3.33;;;1.33;;
47669;SDS011;33408;52.062;11.722;2023-09-19T03:26:36;7.72;;;1.45;;
47669;SDS011;33408;52.062;11.722;2023-09-19T03:29:05;4.05;;;1.52;;
47669;SDS011;33408;52.062;11.722;2023-09-19T03:31:32;5.22;;;1.65;;
47669;SDS011;33408;52.062;11.722;2023-09-19T03:34:01;4.45;;;1.60;;
47669;SDS011;33408;52.062;11.722;2023-09-19T03:36:28;4.95;;;1.83;;
47669;SDS011;33408;52.062;11.722;2023-09-19T03:38:55;5.20;;;1.80;;
47669;SDS011;33408;52.062;11.722;2023-09-19T03:41:22;5.55;;;2.08;;
47669;SDS011;33408;52.062;11.722;2023-09-19T03:43:48;4.72;;;1.65;;
47669;SDS011;33408;52.062;11.722;2023-09-19T03:46:16;4.10;;;1.77;;
47669;SDS011;33408;52.062;11.722;2023-09-19T03:48:43;7.40;;;1.92;;
47669;SDS011;33408;52.062;11.722;2023-09-19T03:51:10;4.00;;;1.80;;
47669;SDS011;33408;52.062;11.722;2023-09-19T03:53:36;3.75;;;1.75;;
47669;SDS011;33408;52.062;11.722;2023-09-19T03:56:03;4.13;;;1.65;;
47669;SDS011;33408;52.062;11.722;2023-09-19T03:58:30;3.35;;;1.70;;
47669;SDS011;33408;52.062;11.722;2023-09-19T04:00:57;3.65;;;1.67;;
47669;SDS011;33408;52.062;11.722;2023-09-19T04:03:25;5.40;;;1.75;;
47669;SDS011;33408;52.062;11.722;2023-09-19T04:05:59;6.55;;;2.30;;
47669;SDS011;33408;52.062;11.722;2023-09-19T04:08:27;6.55;;;1.80;;
47669;SDS011;33408;52.062;11.722;2023-09-19T04:10:54;6.22;;;2.00;;
47669;SDS011;33408;52.062;11.722;2023-09-19T04:13:21;3.50;;;1.70;;
47669;SDS011;33408;52.062;11.722;2023-09-19T04:15:48;2.80;;;1.35;;
47669;SDS011;33408;52.062;11.722;2023-09-19T04:18:15;3.97;;;1.55;;
47669;SDS011;33408;52.062;11.722;2023-09-19T04:20:42;4.40;;;1.80;;
47669;SDS011;33408;52.062;11.722;2023-09-19T04:23:14;5.95;;;2.00;;
47669;SDS011;33408;52.062;11.722;2023-09-19T04:25:40;5.82;;;1.98;;
47669;SDS011;33408;52.062;11.722;2023-09-19T04:28:07;6.15;;;2.13;;
47669;SDS011;33408;52.062;11.722;2023-09-19T04:30:35;5.20;;;2.00;;
47669;SDS011;33408;52.062;11.722;2023-09-19T04:33:02;5.43;;;2.03;;
47669;SDS011;33408;52.062;11.722;2023-09-19T04:35:29;3.58;;;1.58;;
47669;SDS011;33408;52.062;11.722;2023-09-19T04:37:58;4.82;;;1.83;;
47669;SDS011;33408;52.062;11.722;2023-09-19T04:40:24;5.60;;;2.20;;
47669;SDS011;33408;52.062;11.722;2023-09-19T04:42:53;7.03;;;2.30;;
47669;SDS011;33408;52.062;11.722;2023-09-19T04:45:21;6.35;;;2.10;;
47669;SDS011;33408;52.062;11.722;2023-09-19T04:47:48;5.40;;;2.55;;
47669;SDS011;33408;52.062;11.722;2023-09-19T04:50:14;5.35;;;1.80;;
47669;SDS011;33408;52.062;11.722;2023-09-19T04:52:42;7.20;;;2.00;;
47669;SDS011;33408;52.062;11.722;2023-09-19T04:55:11;7.72;;;2.10;;
47669;SDS011;33408;52.062;11.722;2023-09-19T04:57:41;5.87;;;2.20;;
47669;SDS011;33408;52.062;11.722;2023-09-19T05:00:08;4.88;;;1.55;;
47669;SDS011;33408;52.062;11.722;2023-09-19T05:02:39;3.85;;;1.77;;
47669;SDS011;33408;52.062;11.722;2023-09-19T05:05:06;3.75;;;1.77;;
47669;SDS011;33408;52.062;11.722;2023-09-19T05:07:34;5.85;;;2.13;;
47669;SDS011;33408;52.062;11.722;2023-09-19T05:10:01;4.75;;;1.92;;
47669;SDS011;33408;52.062;11.722;2023-09-19T05:12:29;6.70;;;2.22;;
47669;SDS011;33408;52.062;11.722;2023-09-19T05:14:55;4.18;;;2.00;;
47669;SDS011;33408;52.062;11.722;2023-09-19T05:17:22;5.35;;;2.08;;
47669;SDS011;33408;52.062;11.722;2023-09-19T05:19:49;4.10;;;2.13;;
47669;SDS011;33408;52.062;11.722;2023-09-19T05:22:17;5.75;;;1.90;;
47669;SDS011;33408;52.062;11.722;2023-09-19T05:24:44;4.93;;;1.95;;
47669;SDS011;33408;52.062;11.722;2023-09-19T05:27:12;4.93;;;2.08;;
47669;SDS011;33408;52.062;11.722;2023-09-19T05:29:40;8.60;;;2.50;;
47669;SDS011;33408;52.062;11.722;2023-09-19T05:32:07;7.15;;;2.67;;
47669;SDS011;33408;52.062;11.722;2023-09-19T05:34:35;4.72;;;1.85;;
47669;SDS011;33408;52.062;11.722;2023-09-19T05:37:01;5.00;;;2.25;;
47669;SDS011;33408;52.062;11.722;2023-09-19T05:39:28;4.78;;;2.20;;
47669;SDS011;33408;52.062;11.722;2023-09-19T05:41:55;5.25;;;2.28;;
47669;SDS011;33408;52.062;11.722;2023-09-19T05:44:22;7.05;;;1.83;;
47669;SDS011;33408;52.062;11.722;2023-09-19T05:46:50;6.57;;;2.42;;
47669;SDS011;33408;52.062;11.722;2023-09-19T05:49:17;5.57;;;2.03;;
47669;SDS011;33408;52.062;11.722;2023-09-19T05:51:46;5.13;;;1.80;;
47669;SDS011;33408;52.062;11.722;2023-09-19T05:54:13;3.92;;;1.90;;
47669;SDS011;33408;52.062;11.722;2023-09-19T05:56:40;4.70;;;2.05;;
47669;SDS011;33408;52.062;11.722;2023-09-19T06:02:12;4.07;;;1.70;;
47669;SDS011;33408;52.062;11.722;2023-09-19T06:04:38;7.68;;;1.90;;
47669;SDS011;33408;52.062;11.722;2023-09-19T06:07:06;5.22;;;1.48;;
47669;SDS011;33408;52.062;11.722;2023-09-19T06:09:33;6.72;;;2.20;;
47669;SDS011;33408;52.062;11.722;2023-09-19T06:11:59;9.48;;;2.40;;
47669;SDS011;33408;52.062;11.722;2023-09-19T06:14:28;5.10;;;1.90;;
47669;SDS011;33408;52.062;11.722;2023-09-19T06:16:55;6.63;;;2.08;;
47669;SDS011;33408;52.062;11.722;2023-09-19T06:19:23;5.07;;;1.85;;
47669;SDS011;33408;52.062;11.722;2023-09-19T06:21:52;6.82;;;2.25;;
47669;SDS011;33408;52.062;11.722;2023-09-19T06:24:19;8.15;;;2.13;;
47669;SDS011;33408;52.062;11.722;2023-09-19T06:26:46;6.50;;;2.40;;
47669;SDS011;33408;52.062;11.722;2023-09-19T06:29:12;8.25;;;2.60;;
47669;SDS011;33408;52.062;11.722;2023-09-19T06:31:39;7.05;;;2.53;;
47669;SDS011;33408;52.062;11.722;2023-09-19T06:34:07;8.85;;;2.67;;
47669;SDS011;33408;52.062;11.722;2023-09-19T06:36:35;8.43;;;2.60;;
47669;SDS011;33408;52.062;11.722;2023-09-19T06:39:01;6.18;;;1.95;;
47669;SDS011;33408;52.062;11.722;2023-09-19T06:41:29;6.97;;;2.33;;
47669;SDS011;33408;52.062;11.722;2023-09-19T06:43:56;6.25;;;2.20;;
47669;SDS011;33408;52.062;11.722;2023-09-19T06:46:22;7.10;;;2.60;;
47669;SDS011;33408;52.062;11.722;2023-09-19T08:19:10;13.30;;;3.08;;
47669;SDS011;33408;52.062;11.722;2023-09-19T08:21:37;6.97;;;2.70;;
47669;SDS011;33408;52.062;11.722;2023-09-19T08:24:03;11.13;;;2.30;;
47669;SDS011;33408;52.062;11.722;2023-09-19T08:26:31;5.72;;;2.17;;
47669;SDS011;33408;52.062;11.722;2023-09-19T08:28:57;10.75;;;2.67;;
47669;SDS011;33408;52.062;11.722;2023-09-19T08:31:24;7.85;;;2.45;;
47669;SDS011;33408;52.062;11.722;2023-09-19T08:33:53;7.85;;;2.40;;
47669;SDS011;33408;52.062;11.722;2023-09-19T08:36:21;7.55;;;2.20;;
47669;SDS011;33408;52.062;11.722;2023-09-19T08:38:47;9.25;;;2.47;;
47669;SDS011;33408;52.062;11.722;2023-09-19T08:41:14;8.80;;;2.40;;
47669;SDS011;33408;52.062;11.722;2023-09-19T08:43:44;8.27;;;2.58;;
47669;SDS011;33408;52.062;11.722;2023-09-19T08:46:14;7.65;;;2.35;;
47669;SDS011;33408;52.062;11.722;2023-09-19T08:48:45;8.25;;;2.67;;
47669;SDS011;33408;52.062;11.722;2023-09-19T08:51:16;9.18;;;2.47;;
47669;SDS011;33408;52.062;11.722;2023-09-19T08:53:50;7.97;;;2.42;;
47669;SDS011;33408;52.062;11.722;2023-09-19T08:56:18;8.32;;;2.38;;
47669;SDS011;33408;52.062;11.722;2023-09-19T08:58:48;9.60;;;2.53;;
47669;SDS011;33408;52.062;11.722;2023-09-19T09:01:18;8.90;;;2.30;;
47669;SDS011;33408;52.062;11.722;2023-09-19T09:03:49;9.17;;;2.30;;
47669;SDS011;33408;52.062;11.722;2023-09-19T09:06:18;9.98;;;2.42;;
47669;SDS011;33408;52.062;11.722;2023-09-19T09:08:46;7.10;;;2.50;;
47669;SDS011;33408;52.062;11.722;2023-09-19T09:11:13;8.80;;;2.90;;
47669;SDS011;33408;52.062;11.722;2023-09-19T09:13:42;8.50;;;2.35;;
47669;SDS011;33408;52.062;11.722;2023-09-19T09:16:09;6.78;;;2.33;;
47669;SDS011;33408;52.062;11.722;2023-09-19T09:18:37;8.55;;;2.75;;
47669;SDS011;33408;52.062;11.722;2023-09-19T09:21:04;6.75;;;1.88;;
47669;SDS011;33408;52.062;11.722;2023-09-19T09:23:32;10.73;;;2.60;;
47669;SDS011;33408;52.062;11.722;2023-09-19T09:25:59;9.02;;;2.47;;
47669;SDS011;33408;52.062;11.722;2023-09-19T09:28:28;7.35;;;2.08;;
47669;SDS011;33408;52.062;11.722;2023-09-19T09:30:56;7.13;;;2.20;;
47669;SDS011;33408;52.062;11.722;2023-09-19T09:33:23;9.68;;;2.42;;
47669;SDS011;33408;52.062;11.722;2023-09-19T09:35:50;6.07;;;2.08;;
47669;SDS011;33408;52.062;11.722;2023-09-19T09:38:18;8.27;;;2.05;;
47669;SDS011;33408;52.062;11.722;2023-09-19T09:40:48;5.60;;;1.92;;
47669;SDS011;33408;52.062;11.722;2023-09-19T09:43:31;8.88;;;2.75;;
47669;SDS011;33408;52.062;11.722;2023-09-19T09:46:09;8.32;;;2.17;;
47669;SDS011;33408;52.062;11.722;2023-09-19T09:49:05;6.88;;;1.98;;
47669;SDS011;33408;52.062;11.722;2023-09-19T09:51:43;8.32;;;2.28;;
47669;SDS011;33408;52.062;11.722;2023-09-19T09:54:14;8.85;;;2.15;;
47669;SDS011;33408;52.062;11.722;2023-09-19T09:56:55;6.28;;;2.10;;
47669;SDS011;33408;52.062;11.722;2023-09-19T10:02:12;6.38;;;2.08;;
47669;SDS011;33408;52.062;11.722;2023-09-19T10:04:40;9.25;;;2.30;;
47669;SDS011;33408;52.062;11.722;2023-09-19T10:07:23;5.63;;;2.20;;
47669;SDS011;33408;52.062;11.722;2023-09-19T10:09:57;8.45;;;2.22;;
47669;SDS011;33408;52.062;11.722;2023-09-19T10:12:36;6.95;;;1.80;;
47669;SDS011;33408;52.062;11.722;2023-09-19T10:15:08;7.57;;;1.92;;
47669;SDS011;33408;52.062;11.722;2023-09-19T10:17:37;6.25;;;1.98;;
47669;SDS011;33408;52.062;11.722;2023-09-19T10:20:08;7.97;;;2.53;;
47669;SDS011;33408;52.062;11.722;2023-09-19T10:22:47;7.75;;;2.28;;
47669;SDS011;33408;52.062;11.722;2023-09-19T10:25:24;7.32;;;2.00;;
47669;SDS011;33408;52.062;11.722;2023-09-19T10:27:55;6.05;;;1.73;;
47669;SDS011;33408;52.062;11.722;2023-09-19T10:30:25;5.70;;;1.88;;
47669;SDS011;33408;52.062;11.722;2023-09-19T10:32:57;7.30;;;1.95;;
47669;SDS011;33408;52.062;11.722;2023-09-19T10:35:26;5.90;;;2.13;;
47669;SDS011;33408;52.062;11.722;2023-09-19T10:37:54;7.40;;;2.17;;
47669;SDS011;33408;52.062;11.722;2023-09-19T10:40:23;5.38;;;1.77;;
47669;SDS011;33408;52.062;11.722;2023-09-19T10:42:58;5.05;;;1.85;;
47669;SDS011;33408;52.062;11.722;2023-09-19T10:45:30;5.50;;;1.95;;
47669;SDS011;33408;52.062;11.722;2023-09-19T10:47:58;5.75;;;1.92;;
47669;SDS011;33408;52.062;11.722;2023-09-19T10:50:25;6.70;;;1.95;;
47669;SDS011;33408;52.062;11.722;2023-09-19T10:52:56;3.67;;;1.42;;
47669;SDS011;33408;52.062;11.722;2023-09-19T10:55:29;6.10;;;2.00;;
47669;SDS011;33408;52.062;11.722;2023-09-19T10:57:59;8.20;;;1.92;;
47669;SDS011;33408;52.062;11.722;2023-09-19T11:00:28;6.47;;;2.10;;
47669;SDS011;33408;52.062;11.722;2023-09-19T11:03:18;5.95;;;1.70;;
47669;SDS011;33408;52.062;11.722;2023-09-19T11:06:00;6.50;;;2.08;;
47669;SDS011;33408;52.062;11.722;2023-09-19T11:11:38;6.18;;;2.03;;
47669;SDS011;33408;52.062;11.722;2023-09-19T11:14:28;6.75;;;2.42;;
47669;SDS011;33408;52.062;11.722;2023-09-19T11:20:17;5.43;;;1.92;;
47669;SDS011;33408;52.062;11.722;2023-09-19T11:25:47;6.38;;;1.70;;
47669;SDS011;33408;52.062;11.722;2023-09-19T11:28:29;6.22;;;2.08;;
47669;SDS011;33408;52.062;11.722;2023-09-19T11:30:58;6.70;;;1.92;;
47669;SDS011;33408;52.062;11.722;2023-09-19T11:33:26;5.20;;;1.55;;
47669;SDS011;33408;52.062;11.722;2023-09-19T11:36:02;6.97;;;1.77;;
47669;SDS011;33408;52.062;11.722;2023-09-19T11:41:36;5.20;;;1.85;;
47669;SDS011;33408;52.062;11.722;2023-09-19T11:47:05;8.18;;;2.17;;
47669;SDS011;33408;52.062;11.722;2023-09-19T11:49:32;14.63;;;2.70;;
47669;SDS011;33408;52.062;11.722;2023-09-19T11:52:00;6.00;;;2.22;;
47669;SDS011;33408;52.062;11.722;2023-09-19T11:54:30;4.45;;;1.88;;
47669;SDS011;33408;52.062;11.722;2023-09-19T11:56:58;6.95;;;1.73;;
47669;SDS011;33408;52.062;11.722;2023-09-19T11:59:26;6.95;;;2.22;;
47669;SDS011;33408;52.062;11.722;2023-09-19T12:01:58;4.80;;;1.77;;
47669;SDS011;33408;52.062;11.722;2023-09-19T12:07:08;5.38;;;1.60;;
47669;SDS011;33408;52.062;11.722;2023-09-19T12:09:40;6.97;;;1.80;;
47669;SDS011;33408;52.062;11.722;2023-09-19T12:12:09;7.47;;;2.10;;
47669;SDS011;33408;52.062;11.722;2023-09-19T12:14:37;6.85;;;1.88;;
47669;SDS011;33408;52.062;11.722;2023-09-19T12:17:07;7.35;;;2.13;;
47669;SDS011;33408;52.062;11.722;2023-09-19T12:19:34;6.40;;;1.88;;
47669;SDS011;33408;52.062;11.722;2023-09-19T12:22:02;6.78;;;2.08;;
47669;SDS011;33408;52.062;11.722;2023-09-19T12:24:30;10.80;;;1.90;;
47669;SDS011;33408;52.062;11.722;2023-09-19T12:27:01;9.88;;;2.53;;
47669;SDS011;33408;52.062;11.722;2023-09-19T12:29:30;5.00;;;1.80;;
47669;SDS011;33408;52.062;11.722;2023-09-19T12:31:59;5.85;;;2.08;;
47669;SDS011;33408;52.062;11.722;2023-09-19T12:34:29;8.93;;;2.05;;
47669;SDS011;33408;52.062;11.722;2023-09-19T12:37:07;8.30;;;2.25;;
47669;SDS011;33408;52.062;11.722;2023-09-19T12:39:38;6.47;;;1.95;;
47669;SDS011;33408;52.062;11.722;2023-09-19T12:42:08;6.80;;;2.28;;
47669;SDS011;33408;52.062;11.722;2023-09-19T12:44:36;6.97;;;2.17;;
47669;SDS011;33408;52.062;11.722;2023-09-19T12:47:14;8.50;;;2.70;;
47669;SDS011;33408;52.062;11.722;2023-09-19T12:52:37;7.70;;;2.40;;
47669;SDS011;33408;52.062;11.722;2023-09-19T12:57:32;6.25;;;2.22;;
47669;SDS011;33408;52.062;11.722;2023-09-19T12:59:59;7.53;;;2.72;;
47669;SDS011;33408;52.062;11.722;2023-09-19T13:02:26;8.73;;;2.25;;
47669;SDS011;33408;52.062;11.722;2023-09-19T13:04:53;7.43;;;2.15;;
47669;SDS011;33408;52.062;11.722;2023-09-19T13:07:41;6.47;;;2.22;;
47669;SDS011;33408;52.062;11.722;2023-09-19T13:10:10;8.63;;;2.72;;
47669;SDS011;33408;52.062;11.722;2023-09-19T13:12:40;8.88;;;2.38;;
47669;SDS011;33408;52.062;11.722;2023-09-19T13:15:08;7.57;;;2.55;;
47669;SDS011;33408;52.062;11.722;2023-09-19T13:17:44;7.00;;;2.08;;
47669;SDS011;33408;52.062;11.722;2023-09-19T13:20:23;6.30;;;2.47;;
47669;SDS011;33408;52.062;11.722;2023-09-19T13:22:54;8.43;;;2.70;;
47669;SDS011;33408;52.062;11.722;2023-09-19T13:27:54;6.35;;;2.25;;
47669;SDS011;33408;52.062;11.722;2023-09-19T13:30:22;8.55;;;2.65;;
47669;SDS011;33408;52.062;11.722;2023-09-19T13:32:51;7.90;;;2.63;;
47669;SDS011;33408;52.062;11.722;2023-09-19T13:35:19;6.40;;;2.10;;
47669;SDS011;33408;52.062;11.722;2023-09-19T13:37:46;7.93;;;2.60;;
47669;SDS011;33408;52.062;11.722;2023-09-19T13:40:18;7.93;;;2.38;;
47669;SDS011;33408;52.062;11.722;2023-09-19T13:42:44;8.43;;;3.17;;
47669;SDS011;33408;52.062;11.722;2023-09-19T13:45:11;8.70;;;2.58;;
47669;SDS011;33408;52.062;11.722;2023-09-19T13:47:40;8.70;;;2.45;;
47669;SDS011;33408;52.062;11.722;2023-09-19T13:50:08;7.20;;;2.45;;
47669;SDS011;33408;52.062;11.722;2023-09-19T13:52:35;7.80;;;2.38;;
47669;SDS011;33408;52.062;11.722;2023-09-19T13:55:06;6.75;;;2.45;;
47669;SDS011;33408;52.062;11.722;2023-09-19T13:57:35;12.60;;;2.92;;
47669;SDS011;33408;52.062;11.722;2023-09-19T14:00:01;8.68;;;2.40;;
47669;SDS011;33408;52.062;11.722;2023-09-19T14:02:29;7.30;;;2.63;;
47669;SDS011;33408;52.062;11.722;2023-09-19T14:04:57;10.43;;;2.92;;
47669;SDS011;33408;52.062;11.722;2023-09-19T14:07:23;6.50;;;2.30;;
47669;SDS011;33408;52.062;11.722;2023-09-19T14:09:50;7.53;;;2.45;;
47669;SDS011;33408;52.062;11.722;2023-09-19T14:12:17;9.88;;;2.67;;
47669;SDS011;33408;52.062;11.722;2023-09-19T14:14:46;5.70;;;2.28;;
47669;SDS011;33408;52.062;11.722;2023-09-19T14:17:12;8.18;;;2.70;;
47669;SDS011;33408;52.062;11.722;2023-09-19T14:19:40;4.32;;;1.80;;
47669;SDS011;33408;52.062;11.722;2023-09-19T14:22:08;7.30;;;2.38;;
47669;SDS011;33408;52.062;11.722;2023-09-19T14:24:38;8.35;;;2.72;;
47669;SDS011;33408;52.062;11.722;2023-09-19T14:27:06;10.23;;;3.42;;
47669;SDS011;33408;52.062;11.722;2023-09-19T14:29:34;7.68;;;2.70;;
47669;SDS011;33408;52.062;11.722;2023-09-19T14:32:02;10.18;;;3.40;;
47669;SDS011;33408;52.062;11.722;2023-09-19T14:34:30;8.32;;;2.90;;
47669;SDS011;33408;52.062;11.722;2023-09-19T14:36:56;9.30;;;2.80;;
47669;SDS011;33408;52.062;11.722;2023-09-19T14:39:23;8.48;;;2.80;;
47669;SDS011;33408;52.062;11.722;2023-09-19T14:41:50;7.95;;;2.50;;
47669;SDS011;33408;52.062;11.722;2023-09-19T14:44:16;10.10;;;2.90;;
47669;SDS011;33408;52.062;11.722;2023-09-19T14:46:46;7.22;;;2.42;;
47669;SDS011;33408;52.062;11.722;2023-09-19T14:49:14;8.07;;;2.60;;
47669;SDS011;33408;52.062;11.722;2023-09-19T14:51:41;11.30;;;2.67;;
47669;SDS011;33408;52.062;11.722;2023-09-19T14:54:09;9.15;;;3.22;;
47669;SDS011;33408;52.062;11.722;2023-09-19T14:56:35;6.68;;;2.50;;
47669;SDS011;33408;52.062;11.722;2023-09-19T14:59:02;5.63;;;2.20;;
47669;SDS011;33408;52.062;11.722;2023-09-19T15:01:29;7.72;;;2.50;;
47669;SDS011;33408;52.062;11.722;2023-09-19T15:03:57;8.93;;;3.13;;
47669;SDS011;33408;52.062;11.722;2023-09-19T15:06:27;8.90;;;2.63;;
47669;SDS011;33408;52.062;11.722;2023-09-19T15:08:53;8.10;;;2.30;;
47669;SDS011;33408;52.062;11.722;2023-09-19T15:11:20;6.93;;;2.30;;
47669;SDS011;33408;52.062;11.722;2023-09-19T15:13:47;8.88;;;3.10;;
47669;SDS011;33408;52.062;11.722;2023-09-19T15:16:16;5.80;;;2.45;;
47669;SDS011;33408;52.062;11.722;2023-09-19T15:18:43;9.82;;;3.15;;
47669;SDS011;33408;52.062;11.722;2023-09-19T15:21:12;6.72;;;2.58;;
47669;SDS011;33408;52.062;11.722;2023-09-19T15:23:42;6.60;;;2.50;;
47669;SDS011;33408;52.062;11.722;2023-09-19T15:26:11;7.93;;;2.20;;
47669;SDS011;33408;52.062;11.722;2023-09-19T15:28:46;8.35;;;2.55;;
47669;SDS011;33408;52.062;11.722;2023-09-19T15:31:14;9.23;;;2.60;;
47669;SDS011;33408;52.062;11.722;2023-09-19T15:33:41;8.45;;;2.50;;
47669;SDS011;33408;52.062;11.722;2023-09-19T15:36:08;6.15;;;2.55;;
47669;SDS011;33408;52.062;11.722;2023-09-19T15:41:24;8.02;;;2.67;;
47669;SDS011;33408;52.062;11.722;2023-09-19T15:43:51;7.07;;;2.40;;
47669;SDS011;33408;52.062;11.722;2023-09-19T15:46:18;8.68;;;2.75;;
47669;SDS011;33408;52.062;11.722;2023-09-19T15:48:45;7.85;;;2.70;;
47669;SDS011;33408;52.062;11.722;2023-09-19T15:51:12;8.02;;;2.58;;
47669;SDS011;33408;52.062;11.722;2023-09-19T15:53:41;8.82;;;2.78;;
47669;SDS011;33408;52.062;11.722;2023-09-19T15:56:11;6.45;;;2.60;;
47669;SDS011;33408;52.062;11.722;2023-09-19T15:58:38;12.07;;;2.90;;
47669;SDS011;33408;52.062;11.722;2023-09-19T16:01:05;8.65;;;2.45;;
47669;SDS011;33408;52.062;11.722;2023-09-19T16:03:33;11.40;;;3.13;;
47669;SDS011;33408;52.062;11.722;2023-09-19T16:06:00;7.13;;;2.78;;
47669;SDS011;33408;52.062;11.722;2023-09-19T16:08:27;6.45;;;2.65;;
47669;SDS011;33408;52.062;11.722;2023-09-19T16:10:54;9.32;;;2.33;;
47669;SDS011;33408;52.062;11.722;2023-09-19T16:13:22;8.43;;;2.30;;
47669;SDS011;33408;52.062;11.722;2023-09-19T16:15:48;8.57;;;2.60;;
47669;SDS011;33408;52.062;11.722;2023-09-19T16:18:15;8.55;;;2.50;;
47669;SDS011;33408;52.062;11.722;2023-09-19T16:20:41;7.25;;;2.47;;
47669;SDS011;33408;52.062;11.722;2023-09-19T16:23:08;7.22;;;2.67;;
47669;SDS011;33408;52.062;11.722;2023-09-19T16:25:35;6.97;;;2.75;;
47669;SDS011;33408;52.062;11.722;2023-09-19T16:28:01;15.52;;;2.70;;
47669;SDS011;33408;52.062;11.722;2023-09-19T16:30:31;6.85;;;2.35;;
47669;SDS011;33408;52.062;11.722;2023-09-19T16:32:57;7.75;;;2.80;;
47669;SDS011;33408;52.062;11.722;2023-09-19T16:35:24;7.90;;;2.97;;
47669;SDS011;33408;52.062;11.722;2023-09-19T16:37:50;6.97;;;2.50;;
47669;SDS011;33408;52.062;11.722;2023-09-19T16:40:17;8.95;;;2.55;;
47669;SDS011;33408;52.062;11.722;2023-09-19T16:42:44;9.43;;;3.05;;
47669;SDS011;33408;52.062;11.722;2023-09-19T16:45:10;7.20;;;2.30;;
47669;SDS011;33408;52.062;11.722;2023-09-19T16:47:38;7.43;;;2.05;;
47669;SDS011;33408;52.062;11.722;2023-09-19T16:50:05;6.65;;;2.28;;